Time;durP1;ratioP1;P1;durP2;ratioP2;P2;SDS_P1;SDS_P2;PMS_P1;PMS_P2;Temp;Humidity;BMP_temperature;BMP_pressure;BME280_temperature;BME280_humidity;BME280_pressure;Samples;Min_cycle;Max_cycle;Signal;HPM_P1;HPM_P2
2022/11/22 00:02:16;;;;;;;;;;;;;;;9.01;67.91;94663.59;5053488;28;1046;-60
2022/11/22 00:04:42;;;;;;;;;;;;;;;9.10;67.37;94662.59;5053876;28;989;-60
2022/11/22 00:07:08;;;;;;;;;;;;;;;9.07;65.95;94666.44;5053226;28;1025;-60
2022/11/22 00:09:34;;;;;;;;;;;;;;;9.01;65.57;94672.44;5053425;28;959;-60
2022/11/22 00:12:00;;;;;;;;;;;;;;;8.92;65.85;94665.41;5053426;28;1129;-60
2022/11/22 00:14:26;;;;;;;;;;;;;;;8.85;65.89;94667.06;5053521;28;1028;-59
2022/11/22 00:16:52;;;;;;;;;;;;;;;8.67;67.40;94667.13;5053476;28;1983;-59
2022/11/22 00:19:18;;;;;;;;;;;;;;;8.66;68.33;94674.31;5053400;28;1014;-60
2022/11/22 00:21:44;;;;;;;;;;;;;;;8.75;66.63;94670.69;5053244;28;1530;-60
2022/11/22 00:24:13;;;;;;;;;;;;;;;8.38;68.37;94677.19;5053203;28;1117;-59
2022/11/22 00:26:39;;;;;;;;;;;;;;;8.38;68.04;94671.84;5053169;28;1040;-60
2022/11/22 00:29:05;;;;;;;;;;;;;;;8.45;66.85;94666.75;5053311;28;1021;-60
2022/11/22 00:31:31;;;;;;;;;;;;;;;8.29;67.48;94667.47;5053304;28;974;-60
2022/11/22 00:33:57;;;;;;;;;;;;;;;8.12;68.88;94668.34;5053342;28;1061;-60
2022/11/22 00:36:23;;;;;;;;;;;;;;;8.06;68.79;94671.66;5053102;28;1042;-60
2022/11/22 00:38:50;;;;;;;;;;;;;;;8.08;68.88;94680.31;5053073;28;1987;-60
2022/11/22 00:41:16;;;;;;;;;;;;;;;8.24;66.66;94679.59;5053043;28;1026;-60
2022/11/22 00:43:42;;;;;;;;;;;;;;;8.20;65.72;94671.91;5053382;28;1029;-59
2022/11/22 00:46:08;;;;;;;;;;;;;;;8.02;65.61;94663.16;5053027;28;1117;-60
2022/11/22 00:48:34;;;;;;;;;;;;;;;7.85;66.88;94670.19;5053137;28;1196;-60
2022/11/22 00:51:00;;;;;;;;;;;;;;;7.52;69.36;94674.47;5053064;28;1058;-60
2022/11/22 00:53:26;;;;;;;;;;;;;;;7.68;67.95;94679.06;5035268;28;1097;-60
2022/11/22 00:55:52;;;;;;;;;;;;;;;7.70;66.17;94682.41;5052629;28;1618;-60
2022/11/22 00:58:18;;;;;;;;;;;;;;;7.72;67.11;94691.06;5052740;28;1991;-60
2022/11/22 01:00:44;;;;;;;;;;;;;;;7.75;67.10;94677.44;5053110;28;991;-60
2022/11/22 01:03:11;;;;;;;;;;;;;;;7.79;66.80;94684.94;5052965;28;1058;-60
2022/11/22 01:05:37;;;;;;;;;;;;;;;7.76;67.65;94689.78;5052933;28;1002;-60
2022/11/22 01:08:04;;;;;;;;;;;;;;;7.76;66.88;94684.47;5052957;28;1045;-59
2022/11/22 01:10:30;;;;;;;;;;;;;;;7.59;66.43;94688.81;5052765;28;1136;-60
2022/11/22 01:12:56;;;;;;;;;;;;;;;7.54;68.36;94688.44;5053086;28;974;-60
2022/11/22 01:15:23;;;;;;;;;;;;;;;7.60;66.27;94688.63;5052954;28;974;-60
2022/11/22 01:17:49;;;;;;;;;;;;;;;7.55;66.64;94696.25;5052901;28;1906;-60
2022/11/22 01:20:15;;;;;;;;;;;;;;;7.45;67.60;94686.69;5052676;28;1081;-60
2022/11/22 01:22:41;;;;;;;;;;;;;;;7.55;68.05;94682.97;5052672;28;1086;-60
2022/11/22 01:25:07;;;;;;;;;;;;;;;7.60;65.97;94680.66;5052607;28;1670;-60
2022/11/22 01:27:33;;;;;;;;;;;;;;;7.48;66.54;94683.72;5052538;28;994;-60
2022/11/22 01:30:00;;;;;;;;;;;;;;;7.36;66.74;94680.44;5052661;28;1070;-60
2022/11/22 01:32:26;;;;;;;;;;;;;;;7.20;67.81;94683.81;5052789;28;1299;-60
2022/11/22 01:34:52;;;;;;;;;;;;;;;7.32;68.22;94684.41;5052762;28;1080;-60
2022/11/22 01:37:18;;;;;;;;;;;;;;;7.39;66.77;94686.31;5052521;28;1910;-60
2022/11/22 01:39:44;;;;;;;;;;;;;;;7.41;66.47;94686.97;5052676;28;1504;-60
2022/11/22 01:42:10;;;;;;;;;;;;;;;7.41;66.72;94683.50;5056080;28;1066;-60
2022/11/22 01:44:40;;;;;;;;;;;;;;;7.21;68.02;94675.69;5038173;28;1493;-60
2022/11/22 01:47:10;;;;;;;;;;;;;;;7.13;68.72;94678.28;5056203;28;987;-59
2022/11/22 01:49:43;;;;;;;;;;;;;;;7.32;67.76;94674.63;5038247;28;1066;-60
2022/11/22 01:52:20;;;;;;;;;;;;;;;7.40;66.86;94676.53;5055882;28;1074;-60
2022/11/22 01:54:54;;;;;;;;;;;;;;;7.43;65.73;94676.19;5055810;28;1674;-60
2022/11/22 01:57:23;;;;;;;;;;;;;;;7.40;65.75;94673.88;5055559;28;1914;-60
2022/11/22 01:59:52;;;;;;;;;;;;;;;7.27;65.64;94674.25;5055799;28;1093;-60
2022/11/22 02:02:18;;;;;;;;;;;;;;;7.04;67.00;94668.56;5055731;28;1094;-59
2022/11/22 02:04:45;;;;;;;;;;;;;;;6.91;68.49;94660.13;5055747;28;1124;-60
2022/11/22 02:07:17;;;;;;;;;;;;;;;7.09;68.24;94668.09;5055718;28;1114;-60
2022/11/22 02:09:43;;;;;;;;;;;;;;;7.20;68.15;94665.19;5055601;28;1077;-60
2022/11/22 02:12:10;;;;;;;;;;;;;;;7.28;67.59;94667.09;5055691;28;1021;-60
2022/11/22 02:14:37;;;;;;;;;;;;;;;7.30;66.00;94668.59;5055548;28;1045;-59
2022/11/22 02:17:03;;;;;;;;;;;;;;;7.16;65.16;94666.50;5055522;28;2013;-59
2022/11/22 02:19:29;;;;;;;;;;;;;;;6.96;66.88;94679.94;5055354;28;1082;-59
2022/11/22 02:22:00;;;;;;;;;;;;;;;6.82;68.42;94685.75;5055385;28;1005;-59
2022/11/22 02:24:34;;;;;;;;;;;;;;;6.92;67.91;94689.19;5055506;28;978;-59
2022/11/22 02:27:01;;;;;;;;;;;;;;;6.83;66.67;94682.94;5055556;28;1014;-59
2022/11/22 02:29:27;;;;;;;;;;;;;;;6.73;67.67;94679.50;5055212;28;943;-59
2022/11/22 02:31:53;;;;;;;;;;;;;;;6.70;68.75;94679.81;5055324;28;1057;-59
2022/11/22 02:34:19;;;;;;;;;;;;;;;6.77;69.14;94669.41;5055044;28;1108;-59
2022/11/22 02:36:49;;;;;;;;;;;;;;;6.96;67.19;94671.09;5055307;28;1991;-59
2022/11/22 02:39:16;;;;;;;;;;;;;;;6.91;66.72;94657.47;5055111;28;1805;-59
2022/11/22 02:41:43;;;;;;;;;;;;;;;6.70;66.29;94661.22;5055206;28;985;-59
2022/11/22 02:44:09;;;;;;;;;;;;;;;6.50;67.41;94659.66;5055103;28;1057;-59
2022/11/22 02:46:44;;;;;;;;;;;;;;;6.34;68.87;94655.81;5054901;28;1005;-59
2022/11/22 02:49:10;;;;;;;;;;;;;;;6.46;67.72;94661.78;5055178;28;1045;-59
2022/11/22 02:51:36;;;;;;;;;;;;;;;6.54;66.68;94661.84;5053820;28;966;-59
2022/11/22 02:54:02;;;;;;;;;;;;;;;6.68;66.19;94659.69;5054669;28;1606;-59
2022/11/22 02:56:28;;;;;;;;;;;;;;;6.66;65.17;94657.19;5054615;28;1069;-59
2022/11/22 02:58:54;;;;;;;;;;;;;;;6.50;66.20;94662.31;5054578;28;1918;-59
2022/11/22 03:01:20;;;;;;;;;;;;;;;6.31;67.82;94661.41;5054616;28;993;-59
2022/11/22 03:03:46;;;;;;;;;;;;;;;6.38;68.22;94654.53;5054647;28;1061;-59
2022/11/22 03:06:12;;;;;;;;;;;;;;;6.58;67.92;94649.13;5054804;28;974;-59
2022/11/22 03:08:38;;;;;;;;;;;;;;;6.70;65.27;94642.63;5054658;28;1006;-59
2022/11/22 03:11:04;;;;;;;;;;;;;;;6.65;65.34;94650.19;5054599;28;1044;-59
2022/11/22 03:13:30;;;;;;;;;;;;;;;6.46;65.74;94661.78;5054336;28;1629;-59
2022/11/22 03:15:56;;;;;;;;;;;;;;;6.33;66.42;94670.06;5054409;28;1041;-59
2022/11/22 03:18:22;;;;;;;;;;;;;;;6.10;68.26;94672.28;5054229;28;1906;-59
2022/11/22 03:20:48;;;;;;;;;;;;;;;6.28;66.18;94669.69;5054467;28;971;-59
2022/11/22 03:23:14;;;;;;;;;;;;;;;6.23;65.93;94662.16;5054385;28;966;-59
2022/11/22 03:25:41;;;;;;;;;;;;;;;6.06;65.93;94665.59;5054318;28;1037;-59
2022/11/22 03:28:07;;;;;;;;;;;;;;;5.98;67.90;94665.47;5054257;28;986;-59
2022/11/22 03:30:33;;;;;;;;;;;;;;;5.87;69.32;94661.16;5054059;28;1065;-59
2022/11/22 03:32:59;;;;;;;;;;;;;;;6.09;68.23;94667.09;5054063;28;997;-59
2022/11/22 03:35:25;;;;;;;;;;;;;;;6.32;66.54;94675.53;5053928;28;1042;-59
2022/11/22 03:37:51;;;;;;;;;;;;;;;6.36;66.71;94682.25;5053948;28;1981;-59
2022/11/22 03:40:17;;;;;;;;;;;;;;;6.40;67.47;94684.44;5053826;28;2002;-59
2022/11/22 03:42:43;;;;;;;;;;;;;;;6.43;67.06;94683.31;5053849;28;1034;-59
2022/11/22 03:45:09;;;;;;;;;;;;;;;6.39;65.65;94682.78;5053868;28;967;-59
2022/11/22 03:47:35;;;;;;;;;;;;;;;6.21;65.68;94684.53;5036033;28;978;-59
2022/11/22 03:50:01;;;;;;;;;;;;;;;5.81;68.27;94699.69;5053765;28;1878;-59
2022/11/22 03:52:28;;;;;;;;;;;;;;;5.67;69.15;94711.59;5053817;28;1273;-59
2022/11/22 03:54:54;;;;;;;;;;;;;;;5.91;68.87;94706.81;5053552;28;1606;-59
2022/11/22 03:57:20;;;;;;;;;;;;;;;6.19;66.75;94703.25;5053422;28;1985;-59
2022/11/22 03:59:46;;;;;;;;;;;;;;;6.24;65.76;94708.97;5053653;28;990;-59
2022/11/22 04:02:12;;;;;;;;;;;;;;;6.15;66.40;94707.19;5053554;28;1049;-59
2022/11/22 04:04:38;;;;;;;;;;;;;;;6.06;66.85;94708.88;5053252;28;1072;-59
2022/11/22 04:07:04;;;;;;;;;;;;;;;6.04;66.37;94700.22;5053495;28;1125;-59
2022/11/22 04:09:30;;;;;;;;;;;;;;;5.92;67.29;94696.06;5053522;28;998;-59
2022/11/22 04:11:56;;;;;;;;;;;;;;;5.94;67.77;94699.41;5053559;28;1042;-59
2022/11/22 04:17:07;;;;;;;;;;;;;;;6.08;67.18;94703.44;5053582;28;1996;-59
2022/11/22 04:19:33;;;;;;;;;;;;;;;6.03;68.40;94708.31;5053364;28;1091;-59
2022/11/22 04:21:59;;;;;;;;;;;;;;;6.17;66.18;94717.66;5053505;28;1052;-59
2022/11/22 04:27:09;;;;;;;;;;;;;;;5.94;66.37;94739.19;5053271;28;1048;-59
2022/11/22 04:29:35;;;;;;;;;;;;;;;5.42;68.85;94741.34;5053486;28;1318;-59
2022/11/22 04:34:46;;;;;;;;;;;;;;;5.65;67.21;94740.09;5053231;28;1108;-59
2022/11/22 04:37:12;;;;;;;;;;;;;;;5.67;67.98;94734.63;5053093;28;1985;-59
2022/11/22 04:39:38;;;;;;;;;;;;;;;5.79;68.08;94738.81;5052989;28;1436;-59
2022/11/22 04:44:50;;;;;;;;;;;;;;;5.91;67.00;94743.94;5022069;28;1104;-59
2022/11/22 04:50:03;;;;;;;;;;;;;;;5.84;66.39;94757.78;5053092;28;1037;-59
2022/11/22 04:55:13;;;;;;;;;;;;;;;5.99;65.90;94744.09;5053002;28;1607;-59
2022/11/22 04:57:39;;;;;;;;;;;;;;;5.82;66.92;94742.97;5052780;28;1987;-59
2022/11/22 05:00:06;;;;;;;;;;;;;;;5.81;67.43;94738.66;5053037;28;993;-59
2022/11/22 05:02:32;;;;;;;;;;;;;;;5.70;66.88;94739.66;5052892;28;950;-59
2022/11/22 05:04:58;;;;;;;;;;;;;;;5.67;68.15;94746.09;5052826;28;1096;-59
2022/11/22 05:07:24;;;;;;;;;;;;;;;5.61;69.41;94741.31;5053027;28;1054;-59
2022/11/22 05:09:50;;;;;;;;;;;;;;;5.82;68.62;94745.63;5052842;28;1109;-59
2022/11/22 05:12:15;;;;;;;;;;;;;;;5.87;69.36;94754.84;5052888;28;978;-59
2022/11/22 05:14:41;;;;;;;;;;;;;;;6.00;69.20;94767.03;5053013;28;1045;-59
2022/11/22 05:17:07;;;;;;;;;;;;;;;6.18;67.84;94752.00;5056546;28;1987;-59
2022/11/22 05:19:33;;;;;;;;;;;;;;;6.25;67.34;94754.94;5056456;28;1044;-59
2022/11/22 05:21:59;;;;;;;;;;;;;;;6.28;67.54;94752.00;5056719;28;1045;-59
2022/11/22 05:24:25;;;;;;;;;;;;;;;6.32;67.62;94750.72;5056617;28;970;-59
2022/11/22 05:26:51;;;;;;;;;;;;;;;6.36;67.70;94749.44;5056462;28;1117;-59
2022/11/22 05:29:17;;;;;;;;;;;;;;;6.36;68.08;94741.47;5056295;28;1089;-59
2022/11/22 05:31:43;;;;;;;;;;;;;;;6.35;68.45;94760.22;5056397;28;1121;-59
2022/11/22 05:34:09;;;;;;;;;;;;;;;6.42;67.98;94756.81;5056209;28;990;-59
2022/11/22 05:36:35;;;;;;;;;;;;;;;6.47;68.26;94752.91;5056219;28;1152;-59
2022/11/22 05:39:02;;;;;;;;;;;;;;;6.37;69.08;94759.06;5056250;28;1915;-59
2022/11/22 05:41:28;;;;;;;;;;;;;;;6.39;69.76;94754.47;5056228;28;1014;-59
2022/11/22 05:43:55;;;;;;;;;;;;;;;6.62;69.81;94768.22;5056235;28;1029;-59
2022/11/22 05:46:30;;;;;;;;;;;;;;;6.71;69.50;94771.81;5056055;28;962;-59
2022/11/22 05:48:57;;;;;;;;;;;;;;;6.75;68.84;94767.03;5056332;28;1023;-59
2022/11/22 05:51:25;;;;;;;;;;;;;;;6.59;68.47;94763.19;5056202;28;1025;-59
2022/11/22 05:53:51;;;;;;;;;;;;;;;6.57;69.16;94759.03;5056113;28;1025;-59
2022/11/22 05:56:19;;;;;;;;;;;;;;;6.65;69.22;94764.44;5055686;28;1610;-59
2022/11/22 05:58:45;;;;;;;;;;;;;;;6.62;69.76;94791.28;5038201;28;2001;-59
2022/11/22 06:01:18;;;;;;;;;;;;;;;6.59;69.87;94799.56;5055813;28;1073;-59
2022/11/22 06:03:45;;;;;;;;;;;;;;;6.60;70.32;94785.28;5056222;28;1006;-59
2022/11/22 06:06:11;;;;;;;;;;;;;;;6.63;70.43;94793.78;5055715;28;1062;-59
2022/11/22 06:08:39;;;;;;;;;;;;;;;6.66;70.51;94795.34;5055572;28;1070;-59
2022/11/22 06:11:08;;;;;;;;;;;;;;;6.60;70.94;94793.25;5055718;28;1053;-59
2022/11/22 06:13:37;;;;;;;;;;;;;;;6.60;70.78;94793.25;5055645;28;1041;-59
2022/11/22 06:16:04;;;;;;;;;;;;;;;6.63;70.25;94788.47;5055460;28;970;-59
2022/11/22 06:18:31;;;;;;;;;;;;;;;6.63;71.01;94779.69;5055344;28;1987;-59
2022/11/22 06:20:58;;;;;;;;;;;;;;;6.68;71.12;94772.13;5055465;28;1101;-59
2022/11/22 06:23:24;;;;;;;;;;;;;;;6.62;70.88;94772.69;5055365;28;1062;-59
2022/11/22 06:26:01;;;;;;;;;;;;;;;6.59;71.08;94789.75;5055167;28;1061;-59
2022/11/22 06:28:31;;;;;;;;;;;;;;;6.64;70.95;94787.50;5055219;28;989;-59
2022/11/22 06:31:17;;;;;;;;;;;;;;;6.75;70.86;94767.88;5055504;28;1029;-59
2022/11/22 06:33:43;;;;;;;;;;;;;;;6.95;70.26;94778.41;5055129;28;1135;-59
2022/11/22 06:36:13;;;;;;;;;;;;;;;7.06;69.91;94778.22;5055248;28;1042;-59
2022/11/22 06:38:40;;;;;;;;;;;;;;;7.12;70.64;94785.59;5054994;28;1906;-59
2022/11/22 06:41:08;;;;;;;;;;;;;;;7.14;70.37;94794.25;5055060;28;1058;-59
2022/11/22 06:43:34;;;;;;;;;;;;;;;7.06;70.62;94774.72;5055185;28;1048;-59
2022/11/22 06:46:01;;;;;;;;;;;;;;;7.14;70.13;94780.97;5054934;28;1111;-59
2022/11/22 06:48:34;;;;;;;;;;;;;;;7.07;70.85;94781.72;5054964;28;1045;-59
2022/11/22 06:51:00;;;;;;;;;;;;;;;7.12;70.57;94776.78;5054914;28;975;-59
2022/11/22 06:53:30;;;;;;;;;;;;;;;7.15;70.83;94764.03;5054725;28;1125;-59
2022/11/22 06:56:00;;;;;;;;;;;;;;;7.21;70.59;94760.78;5054713;28;1674;-59
2022/11/22 06:58:26;;;;;;;;;;;;;;;7.33;70.78;94758.72;5054554;28;1926;-59
2022/11/22 07:00:57;;;;;;;;;;;;;;;7.36;70.26;94766.41;5037078;28;1038;-59
2022/11/22 07:03:23;;;;;;;;;;;;;;;7.36;70.63;94778.84;5054611;28;1125;-59
2022/11/22 07:05:50;;;;;;;;;;;;;;;7.32;70.91;94775.69;5054590;28;1066;-59
2022/11/22 07:08:16;;;;;;;;;;;;;;;7.31;71.07;94787.31;5054396;28;1062;-60
2022/11/22 07:10:42;;;;;;;;;;;;;;;7.16;71.11;94784.31;5054721;28;1048;-60
2022/11/22 07:13:08;;;;;;;;;;;;;;;7.15;71.28;94785.31;5054471;28;1275;-60
2022/11/22 07:15:34;;;;;;;;;;;;;;;7.35;71.30;94779.84;5054462;28;1001;-60
2022/11/22 07:18:00;;;;;;;;;;;;;;;7.41;71.75;94773.94;5054291;28;1909;-60
2022/11/22 07:20:26;;;;;;;;;;;;;;;7.45;71.79;94771.81;5054266;28;1062;-60
2022/11/22 07:22:52;;;;;;;;;;;;;;;7.62;71.76;94776.28;5054188;28;1069;-60
2022/11/22 07:25:18;;;;;;;;;;;;;;;7.63;72.25;94775.31;5054173;28;1054;-60
2022/11/22 07:27:44;;;;;;;;;;;;;;;7.69;71.75;94771.22;5054174;28;1045;-60
2022/11/22 07:30:10;;;;;;;;;;;;;;;7.75;71.48;94765.28;5054149;28;1034;-60
2022/11/22 07:32:37;;;;;;;;;;;;;;;7.80;71.13;94768.31;5036356;28;1116;-60
2022/11/22 07:35:03;;;;;;;;;;;;;;;7.85;71.16;94768.66;5054043;28;1129;-60
2022/11/22 07:37:32;;;;;;;;;;;;;;;7.74;71.61;94771.56;5053364;28;1902;-60
2022/11/22 07:39:58;;;;;;;;;;;;;;;7.74;71.56;94766.25;5053771;28;1436;-60
2022/11/22 07:42:24;;;;;;;;;;;;;;;7.22;73.53;94757.13;5054053;28;1029;-60
2022/11/22 07:44:50;;;;;;;;;;;;;;;7.18;74.31;94757.56;5053885;28;1074;-60
2022/11/22 07:47:16;;;;;;;;;;;;;;;7.50;73.05;94745.59;5053761;28;1117;-60
2022/11/22 07:49:42;;;;;;;;;;;;;;;7.68;72.47;94749.06;5053821;28;1125;-60
2022/11/22 07:52:08;;;;;;;;;;;;;;;7.64;72.30;94750.38;5053735;28;1049;-60
2022/11/22 07:54:34;;;;;;;;;;;;;;;7.64;72.64;94747.72;5053785;28;1661;-60
2022/11/22 07:57:00;;;;;;;;;;;;;;;7.69;72.35;94741.94;5053367;28;1987;-60
2022/11/22 07:59:26;;;;;;;;;;;;;;;7.58;72.81;94743.81;5053640;28;1088;-76
2022/11/22 08:01:52;;;;;;;;;;;;;;;7.56;72.54;94748.47;5053742;28;989;-65
2022/11/22 08:04:18;;;;;;;;;;;;;;;7.55;73.12;94746.81;5053592;28;1052;-60
2022/11/22 08:06:44;;;;;;;;;;;;;;;7.35;73.60;94737.31;5053521;28;1045;-59
2022/11/22 08:09:10;;;;;;;;;;;;;;;7.46;73.14;94723.78;5053751;28;1034;-59
2022/11/22 08:11:36;;;;;;;;;;;;;;;7.65;72.68;94729.94;5053349;28;1105;-59
2022/11/22 08:14:02;;;;;;;;;;;;;;;7.72;72.40;94741.63;5053534;28;986;-60
2022/11/22 08:16:28;;;;;;;;;;;;;;;7.84;71.78;94745.72;5053196;28;1117;-60
2022/11/22 08:18:54;;;;;;;;;;;;;;;7.85;72.45;94747.38;5053457;28;2284;-60
2022/11/22 08:21:20;;;;;;;;;;;;;;;7.93;71.85;94746.59;5053263;28;1024;-60
2022/11/22 08:23:47;;;;;;;;;;;;;;;7.87;71.52;94734.75;5053348;28;1042;-60
2022/11/22 08:26:14;;;;;;;;;;;;;;;8.06;71.61;94741.72;5053269;28;1101;-60
2022/11/22 08:28:41;;;;;;;;;;;;;;;8.24;71.19;94743.50;5053308;28;1058;-60
2022/11/22 08:31:09;;;;;;;;;;;;;;;8.25;71.73;94735.34;5053377;28;978;-60
2022/11/22 08:33:35;;;;;;;;;;;;;;;8.27;71.76;94738.72;5053237;28;1028;-59
2022/11/22 08:36:01;;;;;;;;;;;;;;;8.36;71.75;94732.41;5053107;28;1030;-59
2022/11/22 08:38:27;;;;;;;;;;;;;;;8.55;71.36;94731.38;5053248;28;1914;-59
2022/11/22 08:40:53;;;;;;;;;;;;;;;8.64;70.95;94723.44;5053321;28;970;-59
2022/11/22 08:43:19;;;;;;;;;;;;;;;8.63;70.56;94714.59;5053118;28;977;-59
2022/11/22 08:45:47;;;;;;;;;;;;;;;8.70;69.42;94730.78;5052960;28;1117;-59
2022/11/22 08:48:13;;;;;;;;;;;;;;;8.66;70.46;94727.63;5053000;28;1050;-59
2022/11/22 08:50:39;;;;;;;;;;;;;;;8.75;70.42;94732.00;5056314;28;1058;-59
2022/11/22 08:53:05;;;;;;;;;;;;;;;8.75;70.92;94723.16;5039455;28;1093;-59
2022/11/22 08:55:31;;;;;;;;;;;;;;;8.89;70.06;94722.53;5056670;28;1610;-60
2022/11/22 08:57:58;;;;;;;;;;;;;;;8.98;69.74;94718.91;5039452;28;1910;-59
2022/11/22 09:00:24;;;;;;;;;;;;;;;9.19;69.23;94715.78;5057002;28;1045;-59
2022/11/22 09:02:50;;;;;;;;;;;;;;;9.32;69.41;94717.16;5056969;28;1062;-59
2022/11/22 09:05:16;;;;;;;;;;;;;;;9.55;67.18;94706.69;5056746;28;1070;-59
2022/11/22 09:07:42;;;;;;;;;;;;;;;9.55;67.11;94707.50;5057151;28;982;-59
2022/11/22 09:10:08;;;;;;;;;;;;;;;9.38;67.59;94713.84;5056786;28;1081;-59
2022/11/22 09:12:34;;;;;;;;;;;;;;;9.13;68.97;94710.28;5056855;28;978;-58
2022/11/22 09:15:00;;;;;;;;;;;;;;;9.16;69.14;94692.13;5039170;28;986;-58
2022/11/22 09:17:26;;;;;;;;;;;;;;;9.29;69.49;94686.31;5056615;28;1913;-58
2022/11/22 09:19:52;;;;;;;;;;;;;;;9.36;68.17;94689.97;5056588;28;989;-58
2022/11/22 09:22:18;;;;;;;;;;;;;;;9.43;68.83;94681.31;5056442;28;1832;-58
2022/11/22 09:24:44;;;;;;;;;;;;;;;9.14;69.61;94682.59;5056701;28;950;-58
2022/11/22 09:27:10;;;;;;;;;;;;;;;9.23;69.62;94676.28;5056530;28;1137;-59
2022/11/22 09:29:36;;;;;;;;;;;;;;;9.30;69.10;94673.81;5056511;28;1042;-58
2022/11/22 09:32:02;;;;;;;;;;;;;;;9.22;70.25;94666.63;5056437;28;1176;-58
2022/11/22 09:34:28;;;;;;;;;;;;;;;9.19;71.14;94661.63;5056268;28;1001;-69
2022/11/22 09:36:54;;;;;;;;;;;;;;;9.34;70.88;94662.63;5038620;28;1902;-59
2022/11/22 09:39:20;;;;;;;;;;;;;;;9.37;70.55;94640.97;5056139;28;1680;-59
2022/11/22 09:41:49;;;;;;;;;;;;;;;9.41;69.97;94630.81;5052955;28;1451;-59
2022/11/22 09:44:22;;;;;;;;;;;;;;;9.43;69.47;94622.59;5055861;28;1217;-59
2022/11/22 09:46:51;;;;;;;;;;;;;;;9.43;69.75;94620.78;5056176;28;974;-59
2022/11/22 09:49:28;;;;;;;;;;;;;;;9.32;70.09;94619.28;5056013;28;1042;-58
2022/11/22 09:52:02;;;;;;;;;;;;;;;9.28;70.51;94617.13;5056000;28;1062;-58
2022/11/22 09:54:48;;;;;;;;;;;;;;;9.28;70.86;94625.13;5055751;28;1475;-58
2022/11/22 09:57:21;;;;;;;;;;;;;;;9.16;71.50;94628.13;5055461;28;1910;-58
2022/11/22 09:59:50;;;;;;;;;;;;;;;9.14;71.50;94624.78;5055872;28;1025;-58
2022/11/22 10:02:20;;;;;;;;;;;;;;;9.38;71.41;94607.94;5054815;28;1103;-58
2022/11/22 10:04:52;;;;;;;;;;;;;;;9.60;70.47;94599.41;5055925;28;967;-58
2022/11/22 10:07:29;;;;;;;;;;;;;;;9.68;70.66;94584.25;5055635;28;1070;-58
2022/11/22 10:10:02;;;;;;;;;;;;;;;9.68;69.73;94572.75;5037993;28;1113;-58
2022/11/22 10:12:31;;;;;;;;;;;;;;;9.64;69.43;94582.09;5055482;28;1220;-57
2022/11/22 10:15:11;;;;;;;;;;;;;;;9.64;70.04;94582.09;5055791;28;1057;-58
2022/11/22 10:17:42;;;;;;;;;;;;;;;9.68;71.32;94583.41;5055515;28;2001;-58
2022/11/22 10:20:19;;;;;;;;;;;;;;;9.65;70.08;94578.41;5055615;28;1021;-58
2022/11/22 10:22:46;;;;;;;;;;;;;;;9.57;70.34;94573.91;5037599;28;1283;-59
2022/11/22 10:25:14;;;;;;;;;;;;;;;9.59;70.36;94571.91;5055636;28;985;-59
2022/11/22 10:27:41;;;;;;;;;;;;;;;9.53;71.52;94565.41;5055353;28;1109;-59
2022/11/22 10:30:15;;;;;;;;;;;;;;;9.53;71.26;94565.41;5055433;28;1005;-59
2022/11/22 10:32:47;;;;;;;;;;;;;;;9.53;71.36;94564.59;5055039;28;1138;-59
2022/11/22 10:35:13;;;;;;;;;;;;;;;9.55;71.66;94558.06;5055218;28;977;-59
2022/11/22 10:37:45;;;;;;;;;;;;;;;9.56;71.56;94554.41;5054563;28;1910;-59
2022/11/22 10:40:29;;;;;;;;;;;;;;;9.48;71.96;94542.91;5035213;28;1164;-59
2022/11/22 10:42:58;;;;;;;;;;;;;;;9.56;71.73;94546.41;5040232;28;1208;-58
2022/11/22 10:45:24;;;;;;;;;;;;;;;9.35;72.56;94532.72;5054910;28;1089;-59
2022/11/22 10:48:11;;;;;;;;;;;;;;;9.26;73.46;94544.41;5055057;28;1237;-59
2022/11/22 10:50:49;;;;;;;;;;;;;;;9.34;73.28;94550.59;5033819;28;1245;-59
2022/11/22 10:53:31;;;;;;;;;;;;;;;9.29;72.21;94546.75;5054760;28;1226;-59
2022/11/22 10:56:00;;;;;;;;;;;;;;;9.33;72.66;94532.06;5038850;28;1673;-59
2022/11/22 10:58:45;;;;;;;;;;;;;;;9.31;72.53;94526.06;5034666;28;1965;-59
2022/11/22 11:01:17;;;;;;;;;;;;;;;9.27;73.43;94522.91;5034971;28;966;-58
2022/11/22 11:03:45;;;;;;;;;;;;;;;9.32;73.29;94509.09;5045806;28;1020;-58
2022/11/22 11:06:20;;;;;;;;;;;;;;;9.33;73.26;94505.41;5054676;28;1069;-59
2022/11/22 11:08:49;;;;;;;;;;;;;;;9.34;73.47;94512.41;5054580;28;1044;-59
2022/11/22 11:11:15;;;;;;;;;;;;;;;9.35;73.02;94496.25;5054653;28;1053;-59
2022/11/22 11:13:47;;;;;;;;;;;;;;;9.27;73.14;94479.41;5053212;28;1193;-59
2022/11/22 11:16:18;;;;;;;;;;;;;;;9.11;73.93;94474.94;5054516;28;1001;-59
2022/11/22 11:19:02;;;;;;;;;;;;;;;9.13;73.44;94484.44;5054297;28;1910;-58
2022/11/22 11:21:28;;;;;;;;;;;;;;;9.17;73.78;94475.09;5054510;28;1025;-59
2022/11/22 11:23:54;;;;;;;;;;;;;;;9.15;73.97;94478.94;5053942;28;1168;-59
2022/11/22 11:26:20;;;;;;;;;;;;;;;9.15;74.67;94473.59;5054187;28;1121;-59
2022/11/22 11:28:46;;;;;;;;;;;;;;;9.18;74.03;94468.75;5054315;28;998;-59
2022/11/22 11:31:12;;;;;;;;;;;;;;;9.24;74.05;94469.06;5054240;28;1049;-58
2022/11/22 11:33:40;;;;;;;;;;;;;;;9.31;73.93;94473.53;5053597;28;1197;-59
2022/11/22 11:36:09;;;;;;;;;;;;;;;9.24;74.70;94487.72;5054230;28;966;-59
2022/11/22 11:38:41;;;;;;;;;;;;;;;9.23;75.42;94483.41;5045799;28;1914;-59
2022/11/22 11:41:19;;;;;;;;;;;;;;;9.22;75.04;94481.75;5034174;28;1006;-59
2022/11/22 11:43:46;;;;;;;;;;;;;;;9.28;75.24;94476.56;5044048;28;1240;-58
2022/11/22 11:46:19;;;;;;;;;;;;;;;9.26;75.29;94472.38;5132008;27;1284;-58
2022/11/22 11:48:45;;;;;;;;;;;;;;;9.25;75.35;94460.06;5132078;27;1038;-58
2022/11/22 11:51:14;;;;;;;;;;;;;;;9.26;75.81;94453.72;5131821;27;1074;-58
2022/11/22 11:53:42;;;;;;;;;;;;;;;9.27;75.77;94450.06;5130442;28;1027;-58
2022/11/22 11:56:18;;;;;;;;;;;;;;;9.08;76.85;94441.41;5131665;27;1768;-58
2022/11/22 11:58:49;;;;;;;;;;;;;;;9.11;77.33;94438.44;5131671;27;963;-58
2022/11/22 12:01:19;;;;;;;;;;;;;;;9.15;77.15;94431.75;5131810;27;967;-58
2022/11/22 12:03:57;;;;;;;;;;;;;;;9.19;77.01;94429.56;5131496;27;1246;-58
2022/11/22 12:06:28;;;;;;;;;;;;;;;9.37;75.77;94427.53;5131410;27;1040;-59
2022/11/22 12:08:54;;;;;;;;;;;;;;;9.50;76.12;94423.47;5131528;27;1078;-58
2022/11/22 12:11:24;;;;;;;;;;;;;;;9.56;75.89;94434.31;5130146;28;1039;-58
2022/11/22 12:13:55;;;;;;;;;;;;;;;9.64;76.77;94433.44;5131703;27;1094;-58
2022/11/22 12:16:33;;;;;;;;;;;;;;;9.63;76.69;94431.78;5130303;28;1023;-58
2022/11/22 12:19:17;;;;;;;;;;;;;;;9.64;76.17;94428.09;5130605;28;991;-58
2022/11/22 12:21:56;;;;;;;;;;;;;;;9.38;76.89;94420.34;5131635;28;1058;-58
2022/11/22 12:24:38;;;;;;;;;;;;;;;9.31;77.81;94419.38;5131038;27;2000;-59
2022/11/22 12:27:07;;;;;;;;;;;;;;;9.35;77.47;94413.53;5131341;27;1251;-59
2022/11/22 12:29:36;;;;;;;;;;;;;;;9.42;78.21;94411.00;5131000;27;1079;-59
2022/11/22 12:32:05;;;;;;;;;;;;;;;9.55;78.27;94410.47;5129879;28;973;-59
2022/11/22 12:34:34;;;;;;;;;;;;;;;9.68;78.32;94416.06;5130619;27;1039;-59
2022/11/22 12:37:10;;;;;;;;;;;;;;;9.80;78.84;94410.34;5131184;27;960;-59
2022/11/22 12:39:36;;;;;;;;;;;;;;;9.88;76.98;94404.97;5130821;27;1227;-59
2022/11/22 12:42:13;;;;;;;;;;;;;;;9.95;76.26;94390.72;5130792;27;1098;-59
2022/11/22 12:44:43;;;;;;;;;;;;;;;10.02;76.36;94393.56;5130296;27;2000;-59
2022/11/22 12:47:12;;;;;;;;;;;;;;;10.00;77.54;94398.22;5131012;27;1019;-59
2022/11/22 12:49:42;;;;;;;;;;;;;;;9.98;76.64;94392.25;5130860;27;981;-60
2022/11/22 12:52:21;;;;;;;;;;;;;;;10.00;77.26;94389.38;5130700;27;1031;-60
2022/11/22 12:55:03;;;;;;;;;;;;;;;10.06;76.73;94386.03;5130384;27;1465;-60
2022/11/22 12:57:42;;;;;;;;;;;;;;;10.09;76.03;94382.97;5117839;27;992;-60
2022/11/22 13:00:13;;;;;;;;;;;;;;;10.14;76.31;94386.78;5116996;28;968;-60
2022/11/22 13:02:44;;;;;;;;;;;;;;;10.19;76.29;94388.94;5116721;28;1052;-60
2022/11/22 13:05:10;;;;;;;;;;;;;;;10.22;75.97;94371.72;5115304;28;1902;-60
2022/11/22 13:07:56;;;;;;;;;;;;;;;10.35;76.16;94362.09;5116538;28;1568;-60
2022/11/22 13:10:30;;;;;;;;;;;;;;;10.45;75.66;94361.91;5085097;28;1182;-60
2022/11/22 13:12:57;;;;;;;;;;;;;;;10.56;75.34;94368.63;5116504;28;1185;-59
2022/11/22 13:15:26;;;;;;;;;;;;;;;10.64;74.84;94367.72;5115355;28;1028;-59
2022/11/22 13:17:52;;;;;;;;;;;;;;;10.69;74.14;94363.50;5116468;28;1107;-59
2022/11/22 13:20:20;;;;;;;;;;;;;;;10.65;74.26;94358.72;5116255;28;964;-59
2022/11/22 13:23:07;;;;;;;;;;;;;;;10.69;73.83;94349.31;5116607;28;1003;-59
2022/11/22 13:25:33;;;;;;;;;;;;;;;10.78;72.98;94334.03;5084500;28;1906;-59
2022/11/22 13:28:01;;;;;;;;;;;;;;;10.90;71.98;94335.22;5116365;28;972;-59
2022/11/22 13:30:28;;;;;;;;;;;;;;;11.05;71.47;94322.69;5116121;28;1031;-59
2022/11/22 13:32:56;;;;;;;;;;;;;;;11.12;70.89;94312.94;5116102;28;1496;-59